In Rescue
 
Open Full Screen Window  High Contrast Mode
Wind Gusting 00 knots
07
November 14, 2019 1:56 PM EST
Weather Information
Wind Direction
  250 °
Wind Speed
  07 kt (8 mph)
Wind Gust
  00 kt (0 mph)
Altimeter
30.14 in
Visibility
10 SM
Temperature
-01° C
30° F
Dewpoint
-05° C
23° F
Humidity
75%
1hr Rain Fall
00.00 in.
24hr Rain Fall
00.00 in.
Sky Condition
Overcast @ 2,200 ft
MVFR

METAR KMOP 141856Z AUTO 25007KT 10SM OVC022 M01/M05 A3014 RMK AO2 T10071047

FAA Disclaimer: The data displayed is for advisory purposes only and is not to be used for flight planning or operations.